Grootmis, South Africa
Current Conditions -  °F | °C
As of 6:00 AM on Tuesday 21 Oct 2014 (Local Time) from FAUP Reporting Station
Clear Clear  
Wind Chill: 55°   Ceiling: Unl
Heat Index: 55°   Visibility: 6mi
Dew Point: 34°   Wind: 5mph
Humidity: 44%   Direction: 270°W
Pressure: 29.97"   Gusts: NA
Location:  29.65°S, 17.08°E
Report Text: FAUP 210400Z 27004KT CAVOK 13/01 Q1015 NOSIG
Loading
Personal Weather Stations






























Interactive Weather Map
Tropical Storm Tracking
New forecast layout! Learn more

10-Day Weather Forecast

Advertisements
Track Severe Weather on mobile